createdAt,value
2023-10-06T00:00:51.919Z,449.33
2023-10-06T00:05:56.715Z,445.30
2023-10-06T00:11:11.760Z,446.93
2023-10-06T00:16:14.231Z,450.17
2023-10-06T00:21:16.716Z,445.63
2023-10-06T00:26:19.321Z,447.20
2023-10-06T00:31:26.310Z,444.03
2023-10-06T00:36:30.398Z,446.30
2023-10-06T00:41:34.322Z,446.63
2023-10-06T00:46:36.278Z,443.23
2023-10-06T00:51:42.536Z,443.23
2023-10-06T00:56:44.601Z,449.67
2023-10-06T01:01:46.933Z,443.50
2023-10-06T01:06:48.930Z,444.20
2023-10-06T01:11:52.765Z,442.90
2023-10-06T01:17:09.405Z,447.87
2023-10-06T01:22:29.079Z,445.38
2023-10-06T01:27:31.195Z,444.77
2023-10-06T01:32:33.348Z,444.73
2023-10-06T01:37:35.427Z,451.43
2023-10-06T01:42:37.376Z,445.97
2023-10-06T01:47:39.444Z,446.43
2023-10-06T01:52:41.438Z,443.80
2023-10-06T01:57:45.503Z,446.27
2023-10-06T02:02:51.923Z,445.10
2023-10-06T02:08:01.710Z,446.20
2023-10-06T02:13:07.950Z,446.03
2023-10-06T02:18:14.031Z,445.45
2023-10-06T02:23:17.068Z,446.40
2023-10-06T02:28:22.087Z,447.07
2023-10-06T02:33:25.797Z,445.00
2023-10-06T02:38:42.159Z,444.23
2023-10-06T02:43:44.209Z,445.35
2023-10-06T02:48:52.499Z,444.00
2023-10-06T02:54:00.402Z,447.60
2023-10-06T02:59:16.529Z,447.40
2023-10-06T03:04:18.819Z,444.60
2023-10-06T03:09:30.069Z,446.80
2023-10-06T03:14:41.011Z,442.73
2023-10-06T03:19:46.122Z,449.63
2023-10-06T03:25:01.566Z,444.37
2023-10-06T03:30:28.427Z,442.03
2023-10-06T03:35:37.880Z,445.20
2023-10-06T03:41:08.837Z,443.33
2023-10-06T03:46:16.723Z,445.40
2023-10-06T03:51:22.250Z,444.53
2023-10-06T03:56:24.200Z,448.50
2023-10-06T04:01:32.602Z,444.30
2023-10-06T04:06:36.395Z,444.40
2023-10-06T04:11:38.373Z,446.53
2023-10-06T04:16:46.913Z,447.33
2023-10-06T04:21:49.883Z,446.47
2023-10-06T04:26:51.849Z,447.10
2023-10-06T04:31:53.949Z,446.20
2023-10-06T04:36:58.118Z,445.77
2023-10-06T04:42:01.248Z,445.90
2023-10-06T04:47:03.206Z,443.93
2023-10-06T04:52:05.689Z,447.80
2023-10-06T04:57:09.675Z,448.23
2023-10-06T05:02:12.682Z,445.90
2023-10-06T05:07:15.164Z,445.13
2023-10-06T05:12:17.070Z,448.53
2023-10-06T05:17:19.320Z,445.83
2023-10-06T05:22:22.571Z,448.83
2023-10-06T05:27:24.900Z,447.43
2023-10-06T05:32:26.977Z,444.53
2023-10-06T05:37:28.994Z,451.30
2023-10-06T05:42:31.284Z,446.67
2023-10-06T05:47:33.183Z,450.80
2023-10-06T05:52:40.226Z,444.97
2023-10-06T05:57:49.835Z,445.20
2023-10-06T06:02:53.913Z,446.40
2023-10-06T06:07:56.204Z,446.60
2023-10-06T06:13:01.306Z,449.90
2023-10-06T06:18:03.481Z,452.13
2023-10-06T06:23:13.909Z,446.73
2023-10-06T06:28:17.848Z,449.50
2023-10-06T06:33:23.837Z,453.17
2023-10-06T06:38:26.589Z,453.57
2023-10-06T06:43:28.894Z,448.83
2023-10-06T06:48:30.852Z,451.07
2023-10-06T06:53:32.856Z,454.13
2023-10-06T06:58:34.882Z,450.93
2023-10-06T07:03:38.739Z,452.23
2023-10-06T07:08:41.189Z,449.67
2023-10-06T07:13:43.873Z,456.07
2023-10-06T07:18:46.982Z,453.17
2023-10-06T07:23:53.097Z,452.77
2023-10-06T07:28:56.754Z,450.77
2023-10-06T07:33:59.387Z,450.80
2023-10-06T07:39:02.369Z,452.20
2023-10-06T07:44:06.710Z,454.77
2023-10-06T07:49:08.933Z,454.23
2023-10-06T07:54:12.199Z,460.57
2023-10-06T07:59:14.278Z,452.47
2023-10-06T08:04:16.663Z,456.77
2023-10-06T08:09:18.604Z,450.73
2023-10-06T08:14:20.637Z,455.67
2023-10-06T08:19:23.885Z,455.00
2023-10-06T08:24:27.994Z,454.37
2023-10-06T08:29:31.100Z,464.73
2023-10-06T08:34:33.299Z,456.00
2023-10-06T08:39:40.035Z,453.37
2023-10-06T08:44:43.128Z,454.67
2023-10-06T08:49:47.703Z,454.30
2023-10-06T08:54:49.746Z,455.20
2023-10-06T08:59:51.727Z,453.60
2023-10-06T09:04:55.875Z,450.60
2023-10-06T09:09:57.928Z,453.73
2023-10-06T09:15:00.408Z,456.47
2023-10-06T09:20:03.507Z,452.40
2023-10-06T09:25:11.794Z,452.97
2023-10-06T09:30:13.852Z,455.53
2023-10-06T09:35:20.603Z,451.77
2023-10-06T09:40:23.233Z,455.17
2023-10-06T09:45:26.203Z,456.80
2023-10-06T09:50:29.729Z,455.07
2023-10-06T09:55:32.572Z,451.37
2023-10-06T10:00:40.088Z,447.30
2023-10-06T10:05:50.387Z,448.87
2023-10-06T10:10:57.173Z,444.90
2023-10-06T10:16:48.195Z,448.70
2023-10-06T10:22:07.571Z,442.00
2023-10-06T10:27:38.671Z,447.23
2023-10-06T10:32:57.373Z,445.90
2023-10-06T10:38:12.620Z,445.53
2023-10-06T10:43:37.414Z,443.50
2023-10-06T10:48:48.734Z,442.13
2023-10-06T10:53:53.683Z,447.50
2023-10-06T10:58:56.672Z,445.20
2023-10-06T11:04:10.987Z,442.27
2023-10-06T11:09:35.110Z,443.50
2023-10-06T11:14:43.744Z,441.93
2023-10-06T11:19:45.903Z,444.23
2023-10-06T11:24:51.532Z,445.27
2023-10-06T11:29:54.327Z,441.73
2023-10-06T11:34:56.769Z,443.30
2023-10-06T11:39:59.270Z,444.00
2023-10-06T11:45:02.450Z,444.63
2023-10-06T11:50:07.072Z,444.03
2023-10-06T11:55:12.781Z,442.77
2023-10-06T12:00:18.914Z,440.73
2023-10-06T12:05:23.589Z,443.92
2023-10-06T12:10:26.564Z,448.73
2023-10-06T12:15:31.032Z,440.83
2023-10-06T12:20:36.886Z,445.00
2023-10-06T12:25:39.030Z,443.40
2023-10-06T12:30:41.059Z,438.80
2023-10-06T12:35:43.200Z,445.67
2023-10-06T12:40:48.218Z,443.63
2023-10-06T12:45:51.271Z,444.60
2023-10-06T12:50:53.201Z,442.80
2023-10-06T12:55:58.289Z,443.73
2023-10-06T13:01:00.381Z,442.80
2023-10-06T13:06:04.756Z,443.47
2023-10-06T13:11:11.455Z,443.97
2023-10-06T13:16:13.624Z,446.45
2023-10-06T13:21:15.628Z,444.80
2023-10-06T13:26:31.488Z,444.20
2023-10-06T13:31:42.426Z,437.60
2023-10-06T13:36:44.807Z,442.13
2023-10-06T13:41:48.093Z,445.63
2023-10-06T13:46:50.376Z,441.90
2023-10-06T13:51:54.402Z,445.30
2023-10-06T13:56:58.604Z,444.23
2023-10-06T14:02:01.316Z,442.40
2023-10-06T14:07:06.727Z,443.50
2023-10-06T14:12:14.270Z,442.03
2023-10-06T14:17:22.765Z,442.53
2023-10-06T14:22:31.333Z,441.47
2023-10-06T14:27:33.259Z,443.30
2023-10-06T14:32:43.998Z,442.13
2023-10-06T14:38:05.558Z,440.90
2023-10-06T14:43:36.318Z,440.87
2023-10-06T14:48:40.205Z,442.30
2023-10-06T14:53:42.268Z,442.27
2023-10-06T14:58:48.100Z,444.50
2023-10-06T15:03:50.422Z,440.80
2023-10-06T15:08:54.526Z,442.23
2023-10-06T15:13:56.462Z,444.80
2023-10-06T15:18:58.363Z,441.10
2023-10-06T15:24:00.294Z,445.73
2023-10-06T15:29:02.296Z,440.87
2023-10-06T15:34:05.447Z,441.70
2023-10-06T15:39:20.041Z,443.70
2023-10-06T15:44:22.731Z,440.93
2023-10-06T15:49:24.796Z,439.63
2023-10-06T15:54:26.932Z,439.57
2023-10-06T15:59:31.156Z,438.87
2023-10-06T16:04:35.983Z,443.00
2023-10-06T16:09:38.004Z,440.83
2023-10-06T16:14:40.031Z,438.93
2023-10-06T16:19:42.094Z,439.47
2023-10-06T16:24:44.091Z,439.60
2023-10-06T16:29:47.990Z,437.10
2023-10-06T16:34:50.095Z,442.77
2023-10-06T16:39:52.805Z,443.33
2023-10-06T16:44:54.783Z,440.07
2023-10-06T16:49:56.939Z,440.13
2023-10-06T16:54:58.873Z,439.03
2023-10-06T17:00:05.825Z,437.43
2023-10-06T17:10:11.073Z,441.80
2023-10-06T17:15:13.175Z,437.83
2023-10-06T17:20:22.483Z,443.27
2023-10-06T17:25:24.651Z,443.17
2023-10-06T17:30:26.733Z,439.70
2023-10-06T17:35:29.693Z,438.13
2023-10-06T17:40:31.790Z,440.33
2023-10-06T17:45:40.096Z,443.10
2023-10-06T17:50:51.237Z,441.50
2023-10-06T17:55:54.175Z,437.93
2023-10-06T18:00:56.836Z,439.00
2023-10-06T18:05:58.828Z,440.93
2023-10-06T18:11:00.857Z,440.90
2023-10-06T18:16:05.907Z,439.73
2023-10-06T18:21:08.787Z,438.30
2023-10-06T18:26:14.914Z,442.67
2023-10-06T18:31:17.037Z,439.07
2023-10-06T18:36:19.145Z,442.33
2023-10-06T18:41:21.164Z,441.10
2023-10-06T18:46:23.180Z,441.00
2023-10-06T18:51:26.080Z,442.70
2023-10-06T18:56:28.100Z,436.53
2023-10-06T19:01:30.724Z,437.20
2023-10-06T19:06:33.796Z,437.77
2023-10-06T19:11:36.526Z,441.87
2023-10-06T19:16:38.797Z,439.60
2023-10-06T19:21:40.800Z,439.27
2023-10-06T19:26:42.673Z,439.60
2023-10-06T19:31:46.862Z,439.80
2023-10-06T19:36:49.932Z,436.50
2023-10-06T19:41:52.013Z,441.60
2023-10-06T19:46:53.946Z,439.00
2023-10-06T19:51:58.572Z,437.23
2023-10-06T19:57:00.631Z,439.17
2023-10-06T20:02:06.658Z,441.03
2023-10-06T20:07:10.193Z,439.20
2023-10-06T20:12:12.217Z,440.67
2023-10-06T20:17:16.186Z,442.93
2023-10-06T20:22:18.298Z,441.10
2023-10-06T20:27:20.455Z,440.90
2023-10-06T20:32:22.528Z,441.20
2023-10-06T20:37:24.492Z,438.53
2023-10-06T20:42:26.341Z,445.33
2023-10-06T20:47:28.571Z,441.37
2023-10-06T20:52:32.391Z,440.90
2023-10-06T20:57:35.799Z,440.87
2023-10-06T21:02:42.339Z,440.57
2023-10-06T21:07:45.250Z,443.00
2023-10-06T21:12:47.458Z,443.07
2023-10-06T21:17:49.637Z,442.17
2023-10-06T21:22:51.676Z,441.00
2023-10-06T21:27:54.811Z,441.97
2023-10-06T21:32:56.888Z,440.33
2023-10-06T21:37:59.887Z,437.40
2023-10-06T21:43:01.834Z,439.40
2023-10-06T21:48:04.379Z,439.30
2023-10-06T21:53:07.006Z,443.47
2023-10-06T21:58:09.356Z,438.73
2023-10-06T22:03:13.578Z,442.73
2023-10-06T22:08:15.689Z,443.23
2023-10-06T22:13:17.727Z,440.47
2023-10-06T22:18:19.700Z,441.83
2023-10-06T22:23:24.221Z,437.97
2023-10-06T22:28:27.677Z,441.20
2023-10-06T22:33:33.525Z,442.90
2023-10-06T22:38:35.475Z,441.90
2023-10-06T22:43:38.308Z,442.90
2023-10-06T22:48:42.180Z,444.00
2023-10-06T22:53:45.439Z,442.50
2023-10-06T22:58:47.407Z,442.07
2023-10-06T23:03:50.352Z,440.00
2023-10-06T23:08:52.511Z,442.73
2023-10-06T23:13:54.562Z,442.60
2023-10-06T23:18:56.725Z,440.47
2023-10-06T23:24:09.149Z,440.47
2023-10-06T23:29:13.311Z,442.37
2023-10-06T23:34:15.338Z,441.97
2023-10-06T23:39:20.007Z,443.37
2023-10-06T23:44:22.100Z,439.97
2023-10-06T23:49:26.672Z,442.33
2023-10-06T23:54:28.573Z,440.50
2023-10-06T23:59:32.724Z,443.10
